createdAt,value
2022-08-07T00:00:25.259Z,22.07
2022-08-07T00:02:53.572Z,22.04
2022-08-07T00:05:20.841Z,22.03
2022-08-07T00:08:00.116Z,21.98
2022-08-07T00:10:31.569Z,21.94
2022-08-07T00:13:02.026Z,21.93
2022-08-07T00:15:38.308Z,21.93
2022-08-07T00:18:19.268Z,21.90
2022-08-07T00:20:47.811Z,21.87
2022-08-07T00:23:14.862Z,21.87
2022-08-07T00:25:51.774Z,21.84
2022-08-07T00:28:33.426Z,21.80
2022-08-07T00:31:04.394Z,21.76
2022-08-07T00:33:33.848Z,21.80
2022-08-07T00:36:01.167Z,21.76
2022-08-07T00:38:31.830Z,21.72
2022-08-07T00:41:01.622Z,21.66
2022-08-07T00:44:01.959Z,21.57
2022-08-07T00:46:15.271Z,21.54
2022-08-07T00:48:42.576Z,21.54
2022-08-07T00:51:10.514Z,21.49
2022-08-07T00:53:39.315Z,21.47
2022-08-07T00:56:19.025Z,21.45
2022-08-07T00:58:46.780Z,21.41
2022-08-07T01:01:15.540Z,21.36
2022-08-07T01:03:56.772Z,21.41
2022-08-07T01:06:28.354Z,21.35
2022-08-07T01:08:58.670Z,21.32
2022-08-07T01:12:09.099Z,21.29
2022-08-07T01:14:16.828Z,21.25
2022-08-07T01:16:47.169Z,21.21
2022-08-07T01:19:18.203Z,21.15
2022-08-07T01:21:53.204Z,21.12
2022-08-07T01:24:27.425Z,21.05
2022-08-07T01:26:54.718Z,20.99
2022-08-07T01:29:27.979Z,20.96
2022-08-07T01:31:59.382Z,20.94
2022-08-07T01:34:31.182Z,20.92
2022-08-07T01:37:02.274Z,20.90
2022-08-07T01:39:40.992Z,20.90
2022-08-07T01:42:38.251Z,20.87
2022-08-07T01:45:17.923Z,20.87
2022-08-07T01:48:18.402Z,20.87
2022-08-07T01:50:37.540Z,20.87
2022-08-07T01:53:11.362Z,20.87
2022-08-07T01:55:53.352Z,20.87
2022-08-07T01:58:28.856Z,20.87
2022-08-07T02:01:10.084Z,20.87
2022-08-07T02:04:03.323Z,20.85
2022-08-07T02:06:34.357Z,20.85
2022-08-07T02:09:51.958Z,20.84
2022-08-07T02:12:08.773Z,20.84
2022-08-07T02:14:41.122Z,20.87
2022-08-07T02:17:27.412Z,20.82
2022-08-07T02:20:06.624Z,20.82
2022-08-07T02:22:40.993Z,20.82
2022-08-07T02:25:13.937Z,20.80
2022-08-07T02:27:54.247Z,20.75
2022-08-07T02:30:23.214Z,20.78
2022-08-07T02:33:00.553Z,20.77
2022-08-07T02:36:28.266Z,20.77
2022-08-07T02:38:31.682Z,20.72
2022-08-07T02:41:03.961Z,20.71
2022-08-07T02:43:34.503Z,20.71
2022-08-07T02:46:04.412Z,20.71
2022-08-07T02:48:34.507Z,20.70
2022-08-07T02:51:07.820Z,20.67
2022-08-07T02:53:57.036Z,20.70
2022-08-07T02:56:31.374Z,20.67
2022-08-07T02:59:02.080Z,20.67
2022-08-07T03:01:35.427Z,20.67
2022-08-07T03:04:12.490Z,20.65
2022-08-07T03:06:44.725Z,20.63
2022-08-07T03:09:14.450Z,20.60
2022-08-07T03:11:51.930Z,20.58
2022-08-07T03:14:27.731Z,20.60
2022-08-07T03:16:55.985Z,20.58
2022-08-07T03:19:24.069Z,20.57
2022-08-07T03:21:58.726Z,20.52
2022-08-07T03:24:26.956Z,20.52
2022-08-07T03:27:01.686Z,20.50
2022-08-07T03:29:46.064Z,20.47
2022-08-07T03:32:23.578Z,20.45
2022-08-07T03:35:00.792Z,20.43
2022-08-07T03:37:46.283Z,20.44
2022-08-07T03:40:23.404Z,20.40
2022-08-07T03:42:56.207Z,20.40
2022-08-07T03:45:30.354Z,20.40
2022-08-07T03:48:10.060Z,20.37
2022-08-07T03:50:39.886Z,20.37
2022-08-07T03:53:10.934Z,20.36
2022-08-07T03:55:53.088Z,20.31
2022-08-07T03:59:04.959Z,20.33
2022-08-07T04:01:16.059Z,20.30
2022-08-07T04:03:53.706Z,20.29
2022-08-07T04:06:37.722Z,20.27
2022-08-07T04:09:15.818Z,20.26
2022-08-07T04:12:26.331Z,20.29
2022-08-07T04:14:38.969Z,20.27
2022-08-07T04:17:21.255Z,20.29
2022-08-07T04:19:55.323Z,20.29
2022-08-07T04:22:29.183Z,20.29
2022-08-07T04:25:01.622Z,20.29
2022-08-07T04:27:35.892Z,20.30
2022-08-07T04:30:35.459Z,20.29
2022-08-07T04:33:07.270Z,20.34
2022-08-07T04:35:36.624Z,20.34
2022-08-07T04:38:08.569Z,20.36
2022-08-07T04:40:52.057Z,20.44
2022-08-07T04:44:12.956Z,20.60
2022-08-07T04:46:29.367Z,20.67
2022-08-07T04:49:17.825Z,20.74
2022-08-07T04:52:00.133Z,20.74
2022-08-07T04:54:33.512Z,20.75
2022-08-07T04:58:14.034Z,20.75
2022-08-07T05:00:09.539Z,20.77
2022-08-07T05:03:02.659Z,20.77
2022-08-07T05:05:57.337Z,20.80
2022-08-07T05:08:59.328Z,20.75
2022-08-07T05:11:27.674Z,20.77
2022-08-07T05:14:52.378Z,20.72
2022-08-07T05:17:12.001Z,20.71
2022-08-07T05:19:48.145Z,20.72
2022-08-07T05:22:26.719Z,20.77
2022-08-07T05:24:59.617Z,20.84
2022-08-07T05:28:03.202Z,20.90
2022-08-07T05:30:16.668Z,20.90
2022-08-07T05:33:02.376Z,20.91
2022-08-07T05:35:33.382Z,20.90
2022-08-07T05:38:09.081Z,20.94
2022-08-07T05:40:50.697Z,21.01
2022-08-07T05:43:49.556Z,21.12
2022-08-07T05:46:08.423Z,21.25
2022-08-07T05:48:35.664Z,21.39
2022-08-07T05:51:24.227Z,21.50
2022-08-07T05:54:13.791Z,21.59
2022-08-07T05:56:40.233Z,21.64
2022-08-07T05:59:14.680Z,21.74
2022-08-07T06:01:44.136Z,21.80
2022-08-07T06:04:17.450Z,21.92
2022-08-07T06:06:46.153Z,21.97
2022-08-07T06:09:16.811Z,22.00
2022-08-07T06:11:46.468Z,22.05
2022-08-07T06:14:20.806Z,22.14
2022-08-07T06:16:55.886Z,22.17
2022-08-07T06:19:57.531Z,22.14
2022-08-07T06:22:23.847Z,22.22
2022-08-07T06:25:10.440Z,22.28
2022-08-07T06:27:59.700Z,22.42
2022-08-07T06:30:35.481Z,22.49
2022-08-07T06:33:15.669Z,22.56
2022-08-07T06:35:45.489Z,22.71
2022-08-07T06:38:20.302Z,22.83
2022-08-07T06:40:53.183Z,22.82
2022-08-07T06:43:23.595Z,22.95
2022-08-07T06:46:12.747Z,23.00
2022-08-07T06:48:41.888Z,23.13
2022-08-07T06:51:31.197Z,23.26
2022-08-07T06:55:28.187Z,23.44
2022-08-07T06:56:55.790Z,23.64
2022-08-07T07:00:11.855Z,23.75
2022-08-07T07:02:48.368Z,23.97
2022-08-07T07:05:14.082Z,24.09
2022-08-07T07:08:06.688Z,24.28
2022-08-07T07:10:36.202Z,24.30
2022-08-07T07:13:10.144Z,24.46
2022-08-07T07:15:43.157Z,24.56
2022-08-07T07:18:19.075Z,24.77
2022-08-07T07:21:13.272Z,24.89
2022-08-07T07:24:08.191Z,25.08
2022-08-07T07:26:37.171Z,25.28
2022-08-07T07:29:56.317Z,25.45
2022-08-07T07:31:57.240Z,25.57
2022-08-07T07:34:30.813Z,25.75
2022-08-07T07:37:05.440Z,25.99
2022-08-07T07:39:52.486Z,26.29
2022-08-07T07:42:25.735Z,26.46
2022-08-07T07:45:02.032Z,26.57
2022-08-07T07:47:30.503Z,26.50
2022-08-07T07:50:33.398Z,26.67
2022-08-07T07:53:20.578Z,26.73
2022-08-07T07:55:57.919Z,26.86
2022-08-07T07:58:40.644Z,27.11
2022-08-07T08:04:10.773Z,27.25
2022-08-07T08:06:39.914Z,27.25
2022-08-07T08:09:08.390Z,27.30
2022-08-07T08:11:59.464Z,27.43
2022-08-07T08:14:26.648Z,27.53
2022-08-07T08:16:56.169Z,27.69
2022-08-07T08:20:17.328Z,27.97
2022-08-07T08:22:32.961Z,28.04
2022-08-07T08:25:18.155Z,28.10
2022-08-07T08:27:56.388Z,28.36
2022-08-07T08:30:27.639Z,28.53
2022-08-07T08:32:59.012Z,28.64
2022-08-07T08:35:28.942Z,28.71
2022-08-07T08:38:09.408Z,28.85
2022-08-07T08:40:40.170Z,29.02
2022-08-07T08:43:16.133Z,29.15
2022-08-07T08:45:59.142Z,29.26
2022-08-07T08:48:36.229Z,29.37
2022-08-07T08:51:14.289Z,29.59
2022-08-07T08:53:56.490Z,29.76
2022-08-07T08:56:26.970Z,29.74
2022-08-07T08:59:06.473Z,29.74
2022-08-07T09:01:50.133Z,29.86
2022-08-07T09:04:26.035Z,29.80
2022-08-07T09:07:01.967Z,30.00
2022-08-07T09:09:44.542Z,30.14
2022-08-07T09:12:31.069Z,30.23
2022-08-07T09:16:23.931Z,30.29
2022-08-07T09:18:23.645Z,30.32
2022-08-07T09:21:34.152Z,30.42
2022-08-07T09:24:54.807Z,30.69
2022-08-07T09:27:19.744Z,30.80
2022-08-07T09:30:06.064Z,30.85
2022-08-07T09:33:05.708Z,30.92
2022-08-07T09:36:03.369Z,31.04
2022-08-07T09:38:42.504Z,31.15
2022-08-07T09:41:23.863Z,31.25
2022-08-07T09:44:06.821Z,31.46
2022-08-07T09:47:49.424Z,31.76
2022-08-07T09:50:02.931Z,32.04
2022-08-07T09:52:40.533Z,32.31
2022-08-07T09:55:16.906Z,32.38
2022-08-07T09:58:32.053Z,32.22
2022-08-07T10:01:50.398Z,32.17
2022-08-07T10:04:28.096Z,31.82
2022-08-07T10:07:25.981Z,31.73
2022-08-07T10:10:06.937Z,31.63
2022-08-07T10:12:59.451Z,31.58
2022-08-07T10:16:04.934Z,31.60
2022-08-07T10:18:47.904Z,31.70
2022-08-07T10:22:14.905Z,31.80
2022-08-07T10:24:38.213Z,31.89
2022-08-07T10:27:46.017Z,31.95
2022-08-07T10:30:17.885Z,32.07
2022-08-07T10:33:14.929Z,32.24
2022-08-07T10:36:05.593Z,32.32
2022-08-07T10:38:51.232Z,32.08
2022-08-07T10:41:46.968Z,31.70
2022-08-07T10:44:28.660Z,31.66
2022-08-07T10:47:18.599Z,31.64
2022-08-07T10:50:03.275Z,31.70
2022-08-07T10:52:37.685Z,31.70
2022-08-07T10:55:26.610Z,31.76
2022-08-07T10:58:13.623Z,31.89
2022-08-07T11:00:56.486Z,32.08
2022-08-07T11:03:37.595Z,32.39
2022-08-07T11:06:19.271Z,32.73
2022-08-07T11:08:58.744Z,33.02
2022-08-07T11:11:35.922Z,33.30
2022-08-07T11:14:45.534Z,33.41
2022-08-07T11:17:07.144Z,33.33
2022-08-07T11:19:40.052Z,33.23
2022-08-07T11:22:26.612Z,33.20
2022-08-07T11:25:08.487Z,33.30
2022-08-07T11:28:01.218Z,33.30
2022-08-07T11:30:49.370Z,33.43
2022-08-07T11:33:59.547Z,33.60
2022-08-07T11:36:25.402Z,33.84
2022-08-07T11:39:08.647Z,33.85
2022-08-07T11:42:00.251Z,33.75
2022-08-07T11:44:39.653Z,33.75
2022-08-07T11:47:38.875Z,33.97
2022-08-07T11:50:33.527Z,34.15
2022-08-07T11:53:16.361Z,34.35
2022-08-07T11:56:11.958Z,34.59
2022-08-07T11:58:58.897Z,34.57
2022-08-07T12:01:59.199Z,34.63
2022-08-07T12:04:38.424Z,34.74
2022-08-07T12:07:20.600Z,34.71
2022-08-07T12:09:58.376Z,34.74
2022-08-07T12:12:36.347Z,34.80
2022-08-07T12:15:35.440Z,34.67
2022-08-07T12:18:03.127Z,34.63
2022-08-07T12:20:37.902Z,34.56
2022-08-07T12:24:07.542Z,34.60
2022-08-07T12:26:34.467Z,34.79
2022-08-07T12:29:15.926Z,34.86
2022-08-07T12:32:04.034Z,35.01
2022-08-07T12:34:34.228Z,35.26
2022-08-07T12:37:08.671Z,35.40
2022-08-07T12:39:50.730Z,35.44
2022-08-07T12:42:27.281Z,35.35
2022-08-07T12:44:57.932Z,35.20
2022-08-07T12:47:32.765Z,35.04
2022-08-07T12:50:38.697Z,34.86
2022-08-07T12:53:05.287Z,35.03
2022-08-07T12:56:02.808Z,35.45
2022-08-07T12:58:36.035Z,35.59
2022-08-07T13:01:08.386Z,35.68
2022-08-07T13:04:18.959Z,35.82
2022-08-07T13:08:11.529Z,35.88
2022-08-07T13:10:28.328Z,35.91
2022-08-07T13:13:46.703Z,35.78
2022-08-07T13:16:16.970Z,35.72
2022-08-07T13:18:53.690Z,35.59
2022-08-07T13:21:37.706Z,35.41
2022-08-07T13:24:20.368Z,34.99
2022-08-07T13:27:00.522Z,34.62
2022-08-07T13:29:42.541Z,34.56
2022-08-07T13:32:32.507Z,34.71
2022-08-07T13:35:08.674Z,34.84
2022-08-07T13:37:55.334Z,34.93
2022-08-07T13:40:35.353Z,34.84
2022-08-07T13:43:15.048Z,34.62
2022-08-07T13:46:12.319Z,34.36
2022-08-07T13:48:35.091Z,34.13
2022-08-07T13:51:27.261Z,33.91
2022-08-07T13:54:00.919Z,33.78
2022-08-07T13:56:35.849Z,33.74
2022-08-07T13:59:12.316Z,33.74
2022-08-07T14:01:51.487Z,33.78
2022-08-07T14:04:35.565Z,33.82
2022-08-07T14:07:09.532Z,34.02
2022-08-07T14:10:01.534Z,34.23
2022-08-07T14:12:36.266Z,34.35
2022-08-07T14:15:18.738Z,34.23
2022-08-07T14:18:16.085Z,34.09
2022-08-07T14:20:49.343Z,34.06
2022-08-07T14:23:59.533Z,34.04
2022-08-07T14:26:27.959Z,33.99
2022-08-07T14:29:04.531Z,34.02
2022-08-07T14:31:43.402Z,34.05
2022-08-07T14:34:30.021Z,34.06
2022-08-07T14:36:59.353Z,34.01
2022-08-07T14:40:17.944Z,34.09
2022-08-07T14:42:24.847Z,34.32
2022-08-07T14:44:59.519Z,34.63
2022-08-07T14:47:33.774Z,34.87
2022-08-07T14:50:06.287Z,34.87
2022-08-07T14:52:38.868Z,34.82
2022-08-07T14:55:08.865Z,34.89
2022-08-07T14:57:57.934Z,35.03
2022-08-07T15:06:04.654Z,35.17
2022-08-07T15:08:35.452Z,35.33
2022-08-07T15:11:53.096Z,35.31
2022-08-07T15:14:14.352Z,35.15
2022-08-07T15:16:55.009Z,34.94
2022-08-07T15:25:17.423Z,34.29
2022-08-07T15:28:14.127Z,33.98
2022-08-07T15:30:59.380Z,33.79
2022-08-07T15:33:33.446Z,33.67
2022-08-07T15:36:05.042Z,33.70
2022-08-07T15:38:51.344Z,33.62
2022-08-07T15:44:17.054Z,33.41
2022-08-07T15:50:03.713Z,33.53
2022-08-07T15:52:30.831Z,33.57
2022-08-07T15:55:02.658Z,33.65
2022-08-07T15:57:40.053Z,33.79
2022-08-07T16:00:31.078Z,33.95
2022-08-07T16:03:04.372Z,34.01
2022-08-07T16:05:32.448Z,34.04
2022-08-07T16:08:31.822Z,34.01
2022-08-07T16:11:02.471Z,33.89
2022-08-07T16:13:59.039Z,33.70
2022-08-07T16:16:47.946Z,33.50
2022-08-07T16:19:42.483Z,33.33
2022-08-07T16:22:55.581Z,33.24
2022-08-07T16:25:55.301Z,33.31
2022-08-07T16:29:18.116Z,33.44
2022-08-07T16:31:50.376Z,33.62
2022-08-07T16:34:23.883Z,33.88
2022-08-07T16:38:06.628Z,34.04
2022-08-07T16:40:33.931Z,34.12
2022-08-07T16:43:10.827Z,34.04
2022-08-07T16:46:33.100Z,34.02
2022-08-07T16:50:20.280Z,33.81
2022-08-07T16:52:52.041Z,33.65
2022-08-07T16:55:15.951Z,33.54
2022-08-07T16:58:02.622Z,33.53
2022-08-07T17:00:40.451Z,33.51
2022-08-07T17:03:19.393Z,33.48
2022-08-07T17:06:30.033Z,33.38
2022-08-07T17:09:10.905Z,33.23
2022-08-07T17:12:01.468Z,33.10
2022-08-07T17:14:45.291Z,32.87
2022-08-07T17:17:28.009Z,32.70
2022-08-07T17:20:21.671Z,32.60
2022-08-07T17:22:57.137Z,32.48
2022-08-07T17:25:51.569Z,32.39
2022-08-07T17:28:33.897Z,32.22
2022-08-07T17:31:15.736Z,32.09
2022-08-07T17:34:33.069Z,31.97
2022-08-07T17:37:14.199Z,31.80
2022-08-07T17:40:02.966Z,31.66
2022-08-07T17:42:59.076Z,31.54
2022-08-07T17:45:35.192Z,31.39
2022-08-07T17:48:06.397Z,31.29
2022-08-07T17:50:47.884Z,31.23
2022-08-07T17:54:01.583Z,31.20
2022-08-07T17:56:28.813Z,31.20
2022-08-07T17:59:04.977Z,31.19
2022-08-07T18:01:40.605Z,31.15
2022-08-07T18:04:24.654Z,31.09
2022-08-07T18:07:20.860Z,31.02
2022-08-07T18:10:06.127Z,30.96
2022-08-07T18:12:51.288Z,30.89
2022-08-07T18:15:33.149Z,30.78
2022-08-07T18:18:46.071Z,30.71
2022-08-07T18:21:06.440Z,30.59
2022-08-07T18:23:59.395Z,30.51
2022-08-07T18:26:42.568Z,30.38
2022-08-07T18:30:06.901Z,30.29
2022-08-07T18:32:18.500Z,30.21
2022-08-07T18:35:05.715Z,30.11
2022-08-07T18:38:58.642Z,30.05
2022-08-07T18:41:08.001Z,29.94
2022-08-07T18:43:49.509Z,29.88
2022-08-07T18:46:26.837Z,29.84
2022-08-07T18:52:35.520Z,29.69
2022-08-07T18:57:58.340Z,29.50
2022-08-07T19:00:54.294Z,29.43
2022-08-07T19:03:35.512Z,29.32
2022-08-07T19:06:16.427Z,29.22
2022-08-07T19:08:50.352Z,29.15
2022-08-07T19:11:35.816Z,29.06
2022-08-07T19:14:19.999Z,28.99
2022-08-07T19:17:07.859Z,28.91
2022-08-07T19:19:47.469Z,28.81
2022-08-07T19:22:21.120Z,28.74
2022-08-07T19:25:05.439Z,28.67
2022-08-07T19:28:29.402Z,28.58
2022-08-07T19:31:05.608Z,28.51
2022-08-07T19:33:34.733Z,28.45
2022-08-07T19:36:03.820Z,28.34
2022-08-07T19:38:33.804Z,28.27
2022-08-07T19:41:01.847Z,28.20
2022-08-07T19:43:44.128Z,28.13
2022-08-07T19:46:26.590Z,28.02
2022-08-07T19:49:04.326Z,27.97
2022-08-07T19:51:53.030Z,27.88
2022-08-07T19:54:34.189Z,27.82
2022-08-07T19:58:00.786Z,27.70
2022-08-07T20:00:08.937Z,27.62
2022-08-07T20:02:41.720Z,27.55
2022-08-07T20:05:23.955Z,27.46
2022-08-07T20:08:00.691Z,27.38
2022-08-07T20:10:37.331Z,27.34
2022-08-07T20:13:22.954Z,27.24
2022-08-07T20:15:53.976Z,27.16
2022-08-07T20:18:21.879Z,27.10
2022-08-07T20:21:03.874Z,27.02
2022-08-07T20:23:51.934Z,26.95
2022-08-07T20:26:32.129Z,26.88
2022-08-07T20:29:10.122Z,26.83
2022-08-07T20:31:43.987Z,26.76
2022-08-07T20:34:14.889Z,26.70
2022-08-07T20:36:50.661Z,26.65
2022-08-07T20:39:31.174Z,26.60
2022-08-07T20:42:11.455Z,26.54
2022-08-07T20:44:45.481Z,26.50
2022-08-07T20:47:25.067Z,26.41
2022-08-07T20:50:00.468Z,26.36
2022-08-07T20:52:52.093Z,26.30
2022-08-07T20:55:20.821Z,26.23
2022-08-07T20:58:02.543Z,26.19
2022-08-07T21:00:42.973Z,26.12
2022-08-07T21:03:14.027Z,26.09
2022-08-07T21:05:54.584Z,26.03
2022-08-07T21:08:37.746Z,26.00
2022-08-07T21:11:12.051Z,25.95
2022-08-07T21:14:16.164Z,25.90
2022-08-07T21:16:56.068Z,25.86
2022-08-07T21:19:31.873Z,25.79
2022-08-07T21:22:15.263Z,25.75
2022-08-07T21:25:04.676Z,25.72
2022-08-07T21:27:48.946Z,25.68
2022-08-07T21:30:25.951Z,25.65
2022-08-07T21:33:06.527Z,25.61
2022-08-07T21:36:05.087Z,25.54
2022-08-07T21:38:30.155Z,25.48
2022-08-07T21:41:09.913Z,25.44
2022-08-07T21:43:55.954Z,25.38
2022-08-07T21:46:32.111Z,25.34
2022-08-07T21:49:06.052Z,25.28
2022-08-07T21:51:51.403Z,25.26
2022-08-07T21:54:25.665Z,25.23
2022-08-07T21:57:15.876Z,25.18
2022-08-07T22:00:04.646Z,25.16
2022-08-07T22:02:41.289Z,25.07
2022-08-07T22:05:21.978Z,25.03
2022-08-07T22:08:01.373Z,24.99
2022-08-07T22:10:32.907Z,24.94
2022-08-07T22:13:09.227Z,24.94
2022-08-07T22:16:44.595Z,24.87
2022-08-07T22:18:35.449Z,24.80
2022-08-07T22:21:11.569Z,24.79
2022-08-07T22:23:44.954Z,24.72
2022-08-07T22:26:18.195Z,24.66
2022-08-07T22:28:53.630Z,24.65
2022-08-07T22:31:45.660Z,24.59
2022-08-07T22:34:29.010Z,24.56
2022-08-07T22:37:09.192Z,24.52
2022-08-07T22:39:52.700Z,24.49
2022-08-07T22:42:25.891Z,24.45
2022-08-07T22:45:02.325Z,24.42
2022-08-07T22:48:04.447Z,24.39
2022-08-07T22:51:39.693Z,24.32
2022-08-07T22:54:29.785Z,24.26
2022-08-07T22:57:05.309Z,24.22
2022-08-07T22:59:51.983Z,24.19
2022-08-07T23:02:34.460Z,24.16
2022-08-07T23:06:14.735Z,24.14
2022-08-07T23:08:46.076Z,24.05
2022-08-07T23:11:27.317Z,24.00
2022-08-07T23:14:16.733Z,23.97
2022-08-07T23:17:01.052Z,23.94
2022-08-07T23:19:51.799Z,23.88
2022-08-07T23:22:34.769Z,23.85
2022-08-07T23:25:17.586Z,23.77
2022-08-07T23:28:21.492Z,23.70
2022-08-07T23:31:13.805Z,23.66
2022-08-07T23:34:22.752Z,23.64
2022-08-07T23:37:19.282Z,23.61
2022-08-07T23:40:00.513Z,23.58
2022-08-07T23:42:41.353Z,23.56
2022-08-07T23:46:01.493Z,23.51
2022-08-07T23:48:29.146Z,23.49
2022-08-07T23:51:01.300Z,23.46
2022-08-07T23:53:51.233Z,23.46
2022-08-07T23:56:26.570Z,23.43
2022-08-07T23:59:10.720Z,23.42
